createdAt,value
2022-08-07T00:02:37.155Z,19.6
2022-08-07T00:03:47.248Z,19.7
2022-08-07T00:05:46.382Z,19.5
2022-08-07T00:07:46.303Z,19.5
2022-08-07T00:10:04.713Z,19.4
2022-08-07T00:11:53.882Z,19.6
2022-08-07T00:13:46.285Z,19.6
2022-08-07T00:15:51.051Z,19.6
2022-08-07T00:17:46.300Z,19.8
2022-08-07T00:20:00.993Z,19.7
2022-08-07T00:21:55.886Z,19.9
2022-08-07T00:23:46.366Z,19.7
2022-08-07T00:25:52.501Z,19.6
2022-08-07T00:27:52.370Z,19.7
2022-08-07T00:29:46.331Z,19.8
2022-08-07T00:31:46.331Z,19.8
2022-08-07T00:33:47.800Z,19.6
2022-08-07T00:35:49.471Z,19.5
2022-08-07T00:37:47.988Z,19.3
2022-08-07T00:39:54.593Z,19.2
2022-08-07T00:41:53.633Z,19.3
2022-08-07T00:44:01.433Z,19.2
2022-08-07T00:45:46.455Z,19.3
2022-08-07T00:48:09.324Z,19.0
2022-08-07T00:50:20.697Z,18.7
2022-08-07T00:51:56.592Z,18.6
2022-08-07T00:53:50.504Z,18.9
2022-08-07T00:56:02.528Z,19.1
2022-08-07T00:57:55.792Z,19.0
2022-08-07T00:59:46.333Z,19.2
2022-08-07T01:01:46.379Z,19.4
2022-08-07T01:03:55.420Z,19.2
2022-08-07T01:05:51.585Z,19.2
2022-08-07T01:07:46.330Z,19.0
2022-08-07T01:10:06.557Z,19.0
2022-08-07T01:12:09.180Z,18.9
2022-08-07T01:13:55.555Z,19.0
2022-08-07T01:16:01.025Z,19.0
2022-08-07T01:17:46.357Z,18.7
2022-08-07T01:19:54.390Z,18.8
2022-08-07T01:21:46.640Z,18.7
2022-08-07T01:23:46.774Z,18.7
2022-08-07T01:25:55.798Z,18.6
2022-08-07T01:27:51.481Z,18.5
2022-08-07T01:29:46.414Z,18.7
2022-08-07T01:31:48.690Z,18.7
2022-08-07T01:33:54.034Z,19.1
2022-08-07T01:35:53.473Z,19.0
2022-08-07T01:37:46.366Z,19.1
2022-08-07T01:39:47.105Z,19.0
2022-08-07T01:42:07.371Z,18.9
2022-08-07T01:43:46.337Z,19.1
2022-08-07T01:45:46.670Z,19.2
2022-08-07T01:48:21.340Z,19.4
2022-08-07T01:50:16.358Z,19.5
2022-08-07T01:52:16.374Z,19.4
2022-08-07T01:54:21.950Z,19.0
2022-08-07T01:56:16.367Z,19.3
2022-08-07T01:58:29.585Z,19.3
2022-08-07T02:00:16.366Z,19.7
2022-08-07T02:03:11.409Z,19.4
2022-08-07T02:04:16.423Z,19.5
2022-08-07T02:06:31.722Z,19.7
2022-08-07T02:08:16.377Z,19.8
2022-08-07T02:10:16.378Z,20.3
2022-08-07T02:12:17.670Z,20.5
2022-08-07T02:14:35.870Z,20.2
2022-08-07T02:16:16.386Z,20.3
2022-08-07T02:18:16.386Z,20.4
2022-08-07T02:20:17.473Z,20.3
2022-08-07T02:22:18.544Z,20.6
2022-08-07T02:24:17.635Z,20.8
2022-08-07T02:26:32.484Z,20.8
2022-08-07T02:28:24.792Z,20.9
2022-08-07T02:30:16.387Z,20.8
2022-08-07T02:32:16.374Z,20.7
2022-08-07T02:34:18.049Z,20.6
2022-08-07T02:36:29.207Z,21.1
2022-08-07T02:38:16.406Z,21.0
2022-08-07T02:40:35.116Z,20.9
2022-08-07T02:42:16.571Z,20.8
2022-08-07T02:44:16.419Z,21.0
2022-08-07T02:46:16.420Z,21.2
2022-08-07T02:48:16.407Z,21.1
2022-08-07T02:50:16.398Z,21.4
2022-08-07T02:52:16.392Z,21.6
2022-08-07T02:54:16.419Z,21.5
2022-08-07T02:56:21.154Z,21.4
2022-08-07T02:58:16.422Z,21.3
2022-08-07T03:00:16.410Z,20.9
2022-08-07T03:02:16.480Z,20.9
2022-08-07T03:04:16.429Z,21.0
2022-08-07T03:06:16.795Z,21.3
2022-08-07T03:08:16.448Z,21.3
2022-08-07T03:10:16.423Z,21.0
2022-08-07T03:12:22.427Z,20.9
2022-08-07T03:14:16.411Z,21.3
2022-08-07T03:16:16.410Z,21.2
2022-08-07T03:18:18.583Z,21.0
2022-08-07T03:20:16.420Z,21.0
2022-08-07T03:22:19.030Z,21.0
2022-08-07T03:24:20.229Z,21.0
2022-08-07T03:26:23.401Z,20.9
2022-08-07T03:28:37.749Z,20.9
2022-08-07T03:30:16.438Z,21.1
2022-08-07T03:32:16.431Z,21.1
2022-08-07T03:34:18.155Z,21.1
2022-08-07T03:36:16.426Z,20.7
2022-08-07T03:38:16.441Z,20.9
2022-08-07T03:40:17.039Z,21.0
2022-08-07T03:42:16.435Z,21.0
2022-08-07T03:44:53.184Z,20.9
2022-08-07T03:47:11.021Z,20.6
2022-08-07T03:49:02.645Z,20.8
2022-08-07T03:50:55.724Z,20.6
2022-08-07T03:52:46.432Z,20.6
2022-08-07T03:54:54.568Z,20.8
2022-08-07T03:57:03.605Z,21.1
2022-08-07T03:59:09.635Z,20.6
2022-08-07T04:00:53.326Z,20.8
2022-08-07T04:02:47.085Z,21.0
2022-08-07T04:04:46.455Z,21.4
2022-08-07T04:06:46.560Z,21.2
2022-08-07T04:08:46.445Z,21.0
2022-08-07T04:10:54.563Z,21.2
2022-08-07T04:12:46.502Z,21.0
2022-08-07T04:14:48.996Z,21.0
2022-08-07T04:16:58.485Z,21.2
2022-08-07T04:18:59.316Z,21.4
2022-08-07T04:20:54.565Z,21.5
2022-08-07T04:22:53.672Z,21.4
2022-08-07T04:24:46.482Z,21.4
2022-08-07T04:26:46.465Z,21.3
2022-08-07T04:28:46.464Z,21.3
2022-08-07T04:30:55.492Z,21.2
2022-08-07T04:32:47.919Z,21.1
2022-08-07T04:34:46.487Z,20.9
2022-08-07T04:36:49.534Z,21.0
2022-08-07T04:38:46.469Z,20.9
2022-08-07T04:40:52.599Z,21.1
2022-08-07T04:42:46.481Z,21.0
2022-08-07T04:44:54.692Z,21.1
2022-08-07T04:47:04.731Z,21.3
2022-08-07T04:48:46.468Z,21.4
2022-08-07T04:50:52.168Z,21.4
2022-08-07T04:52:46.739Z,21.0
2022-08-07T04:54:50.555Z,21.0
2022-08-07T04:58:13.073Z,20.6
2022-08-07T04:59:18.178Z,21.0
2022-08-07T05:00:46.616Z,20.8
2022-08-07T05:02:47.679Z,20.8
2022-08-07T05:04:50.163Z,20.3
2022-08-07T05:06:51.660Z,20.5
2022-08-07T05:09:01.187Z,20.6
2022-08-07T05:10:46.593Z,20.5
2022-08-07T05:12:51.510Z,20.5
2022-08-07T05:14:54.684Z,20.3
2022-08-07T05:16:46.508Z,20.4
2022-08-07T05:18:46.497Z,20.5
2022-08-07T05:20:46.498Z,20.6
2022-08-07T05:22:46.488Z,20.6
2022-08-07T05:24:46.519Z,20.5
2022-08-07T05:26:46.517Z,20.7
2022-08-07T05:28:48.714Z,20.7
2022-08-07T05:30:47.128Z,20.5
2022-08-07T05:32:46.506Z,20.5
2022-08-07T05:34:46.522Z,20.9
2022-08-07T05:36:49.102Z,20.9
2022-08-07T05:38:59.823Z,21.0
2022-08-07T05:41:16.750Z,21.0
2022-08-07T05:43:16.551Z,21.3
2022-08-07T05:45:46.307Z,21.2
2022-08-07T05:47:18.813Z,21.1
2022-08-07T05:49:16.530Z,21.2
2022-08-07T05:51:16.515Z,21.2
2022-08-07T05:54:11.954Z,21.2
2022-08-07T05:55:16.521Z,21.0
2022-08-07T05:57:16.549Z,20.8
2022-08-07T05:59:16.540Z,20.7
2022-08-07T06:01:16.662Z,20.8
2022-08-07T06:03:16.525Z,20.6
2022-08-07T06:05:16.546Z,20.5
2022-08-07T06:07:22.721Z,20.4
2022-08-07T06:09:16.548Z,20.5
2022-08-07T06:11:16.544Z,20.4
2022-08-07T06:13:16.534Z,20.3
2022-08-07T06:15:16.580Z,20.3
2022-08-07T06:17:16.536Z,20.1
2022-08-07T06:19:17.611Z,20.0
2022-08-07T06:22:15.646Z,20.0
2022-08-07T06:23:45.799Z,19.9
2022-08-07T06:25:16.652Z,19.9
2022-08-07T06:27:22.790Z,19.8
2022-08-07T06:29:16.655Z,19.6
2022-08-07T06:31:16.568Z,19.7
2022-08-07T06:33:16.979Z,19.6
2022-08-07T06:35:18.028Z,19.6
2022-08-07T06:40:18.366Z,19.5
2022-08-07T06:42:00.716Z,19.3
2022-08-07T06:43:25.179Z,19.2
2022-08-07T06:45:25.201Z,19.1
2022-08-07T06:47:25.100Z,19.1
2022-08-07T06:49:25.089Z,19.0
2022-08-07T06:51:33.047Z,18.8
2022-08-07T06:55:28.955Z,19.0
2022-08-07T06:55:32.877Z,19.1
2022-08-07T06:57:39.882Z,19.1
2022-08-07T07:00:14.595Z,19.3
2022-08-07T07:01:25.133Z,19.4
2022-08-07T07:03:26.502Z,19.8
2022-08-07T07:06:03.843Z,19.6
2022-08-07T07:07:59.202Z,19.6
2022-08-07T07:09:25.093Z,19.6
2022-08-07T07:12:08.869Z,19.6
2022-08-07T07:13:55.680Z,20.1
2022-08-07T07:15:26.307Z,20.3
2022-08-07T07:17:25.107Z,20.5
2022-08-07T07:19:55.020Z,20.3
2022-08-07T07:21:27.165Z,20.4
2022-08-07T07:24:10.429Z,20.4
2022-08-07T07:26:31.639Z,20.4
2022-08-07T07:27:25.122Z,20.6
2022-08-07T07:29:40.493Z,20.6
2022-08-07T07:31:25.124Z,20.6
2022-08-07T07:33:25.119Z,20.8
2022-08-07T07:35:25.205Z,20.7
2022-08-07T07:37:45.075Z,20.9
2022-08-07T07:39:25.489Z,21.1
2022-08-07T07:41:30.933Z,21.1
2022-08-07T07:43:27.629Z,21.0
2022-08-07T07:46:39.946Z,21.0
2022-08-07T07:47:25.179Z,20.9
2022-08-07T07:50:34.944Z,20.9
2022-08-07T07:51:25.130Z,21.1
2022-08-07T07:53:25.875Z,21.1
2022-08-07T07:55:25.164Z,21.1
2022-08-07T07:57:43.909Z,21.2
2022-08-07T07:59:51.658Z,21.0
2022-08-07T08:02:03.943Z,21.0
2022-08-07T08:04:10.611Z,20.7
2022-08-07T08:05:30.284Z,20.8
2022-08-07T08:07:35.842Z,20.5
2022-08-07T08:09:25.143Z,20.4
2022-08-07T08:11:59.184Z,20.7
2022-08-07T08:13:25.136Z,20.2
2022-08-07T08:15:25.186Z,19.9
2022-08-07T08:17:57.501Z,19.8
2022-08-07T08:20:19.263Z,19.9
2022-08-07T08:22:03.220Z,20.1
2022-08-07T08:23:55.186Z,20.2
2022-08-07T08:25:56.154Z,20.1
2022-08-07T08:27:57.458Z,19.9
2022-08-07T08:29:55.848Z,20.0
2022-08-07T08:32:17.153Z,20.0
2022-08-07T08:33:55.491Z,19.8
2022-08-07T08:35:55.187Z,19.7
2022-08-07T08:37:59.431Z,19.5
2022-08-07T08:39:58.375Z,19.5
2022-08-07T08:41:58.376Z,19.6
2022-08-07T08:43:58.654Z,19.9
2022-08-07T08:45:59.197Z,19.8
2022-08-07T08:47:55.354Z,19.9
2022-08-07T08:50:02.964Z,19.8
2022-08-07T08:52:13.304Z,19.7
2022-08-07T08:53:55.177Z,19.8
2022-08-07T08:55:58.474Z,19.5
2022-08-07T08:57:55.198Z,19.5
2022-08-07T08:59:55.271Z,19.5
2022-08-07T09:01:59.590Z,19.5
2022-08-07T09:03:55.465Z,19.7
2022-08-07T09:05:55.199Z,19.8
2022-08-07T09:07:58.078Z,20.0
2022-08-07T09:09:57.250Z,20.0
2022-08-07T09:12:01.697Z,19.7
2022-08-07T09:13:55.281Z,20.0
2022-08-07T09:16:24.603Z,19.9
2022-08-07T09:17:59.337Z,20.0
2022-08-07T09:19:55.551Z,20.0
2022-08-07T09:22:09.813Z,19.7
2022-08-07T09:24:32.969Z,19.6
2022-08-07T09:25:55.252Z,19.7
2022-08-07T09:28:01.310Z,19.7
2022-08-07T09:30:05.999Z,19.6
2022-08-07T09:31:55.286Z,19.4
2022-08-07T09:33:57.885Z,19.5
2022-08-07T09:36:01.225Z,19.4
2022-08-07T09:37:55.277Z,19.6
2022-08-07T09:39:57.973Z,19.5
2022-08-07T09:42:03.009Z,19.6
2022-08-07T09:44:05.952Z,19.3
2022-08-07T09:47:23.774Z,19.3
2022-08-07T09:48:01.690Z,18.9
2022-08-07T09:50:02.769Z,19.2
2022-08-07T09:52:16.788Z,19.2
2022-08-07T09:53:59.348Z,19.0
2022-08-07T09:56:04.677Z,19.3
2022-08-07T09:57:55.259Z,19.4
2022-08-07T10:00:01.337Z,19.5
2022-08-07T10:01:55.339Z,19.5
2022-08-07T10:04:03.758Z,19.5
2022-08-07T10:05:59.901Z,19.7
2022-08-07T10:07:55.685Z,19.8
2022-08-07T10:10:00.355Z,20.1
2022-08-07T10:12:01.779Z,20.2
2022-08-07T10:14:01.837Z,20.1
2022-08-07T10:15:55.262Z,20.2
2022-08-07T10:18:01.135Z,20.0
2022-08-07T10:19:55.310Z,20.0
2022-08-07T10:22:15.717Z,20.2
2022-08-07T10:24:25.313Z,20.0
2022-08-07T10:26:25.280Z,20.3
2022-08-07T10:28:25.325Z,20.3
2022-08-07T10:30:26.524Z,20.3
2022-08-07T10:32:51.144Z,20.2
2022-08-07T10:34:27.187Z,20.2
2022-08-07T10:36:29.455Z,20.2
2022-08-07T10:38:48.010Z,20.4
2022-08-07T10:40:30.260Z,20.6
2022-08-07T10:42:31.299Z,20.4
2022-08-07T10:44:33.779Z,20.3
2022-08-07T10:46:25.340Z,20.5
2022-08-07T10:48:25.375Z,20.5
2022-08-07T10:50:26.037Z,20.5
2022-08-07T10:52:31.825Z,20.5
2022-08-07T10:54:25.390Z,20.7
2022-08-07T10:56:31.040Z,20.4
2022-08-07T10:58:33.230Z,20.6
2022-08-07T11:00:39.495Z,20.4
2022-08-07T11:02:33.544Z,20.3
2022-08-07T11:04:31.854Z,20.3
2022-08-07T11:06:26.904Z,19.9
2022-08-07T11:08:30.221Z,20.0
2022-08-07T11:10:27.576Z,19.9
2022-08-07T11:12:32.087Z,19.6
2022-08-07T11:14:45.086Z,19.7
2022-08-07T11:16:29.966Z,19.4
2022-08-07T11:18:25.313Z,19.6
2022-08-07T11:20:25.362Z,19.4
2022-08-07T11:22:33.343Z,19.5
2022-08-07T11:24:25.318Z,19.7
2022-08-07T11:26:25.356Z,19.7
2022-08-07T11:28:25.326Z,19.9
2022-08-07T11:30:41.382Z,20.1
2022-08-07T11:32:26.444Z,20.3
2022-08-07T11:34:25.339Z,20.5
2022-08-07T11:36:30.890Z,20.3
2022-08-07T11:38:28.186Z,20.1
2022-08-07T11:40:27.647Z,19.9
2022-08-07T11:42:29.754Z,20.0
2022-08-07T11:44:25.442Z,20.3
2022-08-07T11:46:25.330Z,20.2
2022-08-07T11:48:29.807Z,20.3
2022-08-07T11:50:32.853Z,20.2
2022-08-07T11:52:29.409Z,20.2
2022-08-07T11:54:25.680Z,20.3
2022-08-07T11:56:27.992Z,20.5
2022-08-07T11:58:33.185Z,20.4
2022-08-07T12:00:28.399Z,20.6
2022-08-07T12:02:30.487Z,20.8
2022-08-07T12:04:25.339Z,21.1
2022-08-07T12:06:39.224Z,21.1
2022-08-07T12:08:31.363Z,20.8
2022-08-07T12:10:25.417Z,20.8
2022-08-07T12:12:25.382Z,21.1
2022-08-07T12:14:25.384Z,21.4
2022-08-07T12:16:29.665Z,21.5
2022-08-07T12:18:29.855Z,21.5
2022-08-07T12:20:30.791Z,21.6
2022-08-07T12:22:56.340Z,21.8
2022-08-07T12:24:37.079Z,21.6
2022-08-07T12:26:29.896Z,21.3
2022-08-07T12:28:31.201Z,21.3
2022-08-07T12:30:55.373Z,21.2
2022-08-07T12:32:55.364Z,21.1
2022-08-07T12:34:56.072Z,21.0
2022-08-07T12:36:55.378Z,21.1
2022-08-07T12:38:57.287Z,21.0
2022-08-07T12:40:55.699Z,20.9
2022-08-07T12:42:57.398Z,20.9
2022-08-07T12:44:55.404Z,20.7
2022-08-07T12:46:55.381Z,20.9
2022-08-07T12:48:55.441Z,20.8
2022-08-07T12:50:55.414Z,20.7
2022-08-07T12:52:55.411Z,20.7
2022-08-07T12:54:57.329Z,20.7
2022-08-07T12:56:55.453Z,20.7
2022-08-07T12:58:58.099Z,20.5
2022-08-07T13:00:56.773Z,20.7
2022-08-07T13:02:55.413Z,20.6
2022-08-07T13:05:01.600Z,20.4
2022-08-07T13:07:01.141Z,20.2
2022-08-07T13:08:55.414Z,20.5
2022-08-07T13:10:55.812Z,20.5
2022-08-07T13:12:56.105Z,20.3
2022-08-07T13:14:55.490Z,19.9
2022-08-07T13:16:55.423Z,19.9
2022-08-07T13:18:55.477Z,19.9
2022-08-07T13:20:55.431Z,20.0
2022-08-07T13:22:55.427Z,19.6
2022-08-07T13:24:55.437Z,19.8
2022-08-07T13:26:55.604Z,20.1
2022-08-07T13:28:58.227Z,20.1
2022-08-07T13:31:01.709Z,20.0
2022-08-07T13:32:55.498Z,20.2
2022-08-07T13:34:55.503Z,20.1
2022-08-07T13:36:55.496Z,20.4
2022-08-07T13:38:55.523Z,20.6
2022-08-07T13:40:56.027Z,20.8
2022-08-07T13:42:55.435Z,20.8
2022-08-07T13:46:06.174Z,20.8
2022-08-07T13:46:55.519Z,20.7
2022-08-07T13:48:58.539Z,20.6
2022-08-07T13:51:27.447Z,20.9
2022-08-07T13:53:10.097Z,21.0
2022-08-07T13:55:10.898Z,20.8
2022-08-07T13:57:10.103Z,20.6
2022-08-07T13:59:12.110Z,20.4
2022-08-07T14:01:10.170Z,20.4
2022-08-07T14:03:10.272Z,20.2
2022-08-07T14:05:10.333Z,20.4
2022-08-07T14:07:10.273Z,20.3
2022-08-07T14:09:16.957Z,20.1
2022-08-07T14:11:14.939Z,20.4
2022-08-07T14:13:10.125Z,20.4
2022-08-07T14:15:10.178Z,20.5
2022-08-07T14:17:51.630Z,20.5
2022-08-07T14:19:10.225Z,20.3
2022-08-07T14:21:20.936Z,20.7
2022-08-07T14:23:13.237Z,20.8
2022-08-07T14:25:10.951Z,20.5
2022-08-07T14:28:09.167Z,20.5
2022-08-07T14:30:05.462Z,20.2
2022-08-07T14:31:10.183Z,20.4
2022-08-07T14:33:10.298Z,20.3
2022-08-07T14:35:10.249Z,20.3
2022-08-07T14:37:16.645Z,20.0
2022-08-07T14:39:12.474Z,19.8
2022-08-07T14:41:12.454Z,19.5
2022-08-07T14:45:20.824Z,19.5
2022-08-07T14:47:14.590Z,19.6
2022-08-07T14:49:56.057Z,19.7
2022-08-07T14:53:10.339Z,19.5
2022-08-07T14:55:10.158Z,19.6
2022-08-07T14:57:10.253Z,19.9
2022-08-07T14:59:13.743Z,20.1
2022-08-07T15:03:18.930Z,20.2
2022-08-07T15:05:19.793Z,20.1
2022-08-07T15:07:17.836Z,20.5
2022-08-07T15:09:58.463Z,20.5
2022-08-07T15:11:10.270Z,20.2
2022-08-07T15:13:11.664Z,20.4
2022-08-07T15:15:21.392Z,20.3
2022-08-07T15:19:10.255Z,20.3
2022-08-07T15:21:44.467Z,20.3
2022-08-07T15:23:17.015Z,20.2
2022-08-07T15:25:17.977Z,20.2
2022-08-07T15:27:10.187Z,20.3
2022-08-07T15:30:10.050Z,20.8
2022-08-07T15:31:10.213Z,20.3
2022-08-07T15:33:19.410Z,20.4
2022-08-07T15:35:10.200Z,20.0
2022-08-07T15:37:10.209Z,20.0
2022-08-07T15:39:56.424Z,20.2
2022-08-07T15:43:55.614Z,20.6
2022-08-07T15:45:58.322Z,20.7
2022-08-07T15:47:59.958Z,20.5
2022-08-07T15:50:03.923Z,20.2
2022-08-07T15:53:52.137Z,20.4
2022-08-07T15:55:53.762Z,20.5
2022-08-07T15:57:48.584Z,20.3
2022-08-07T15:59:44.084Z,20.6
2022-08-07T16:01:40.271Z,20.6
2022-08-07T16:03:47.260Z,20.3
2022-08-07T16:05:40.277Z,20.4
2022-08-07T16:08:32.211Z,20.3
2022-08-07T16:09:41.973Z,20.3
2022-08-07T16:11:41.674Z,20.7
2022-08-07T16:13:59.838Z,20.4
2022-08-07T16:15:55.049Z,20.6
2022-08-07T16:18:00.808Z,20.6
2022-08-07T16:19:42.989Z,20.7
2022-08-07T16:22:01.418Z,20.3
2022-08-07T16:23:54.635Z,20.3
2022-08-07T16:25:54.045Z,20.3
2022-08-07T16:27:41.550Z,20.0
2022-08-07T16:30:09.869Z,19.6
2022-08-07T16:31:50.919Z,19.7
2022-08-07T16:34:03.083Z,19.9
2022-08-07T16:35:51.553Z,20.1
2022-08-07T16:38:06.926Z,20.2
2022-08-07T16:39:49.097Z,20.1
2022-08-07T16:41:41.260Z,20.0
2022-08-07T16:44:05.577Z,20.0
2022-08-07T16:46:47.650Z,19.7
2022-08-07T16:47:52.950Z,19.5
2022-08-07T16:50:27.053Z,20.0
2022-08-07T16:51:54.470Z,20.0
2022-08-07T16:54:01.942Z,20.4
2022-08-07T16:55:43.672Z,20.2
2022-08-07T16:58:02.867Z,20.5
2022-08-07T16:59:45.848Z,20.3
2022-08-07T17:01:41.238Z,20.3
2022-08-07T17:03:58.069Z,20.5
2022-08-07T17:06:19.849Z,20.5
2022-08-07T17:07:55.613Z,20.5
2022-08-07T17:10:05.472Z,20.5
2022-08-07T17:12:03.951Z,20.0
2022-08-07T17:14:17.573Z,20.0
2022-08-07T17:15:43.889Z,20.0
2022-08-07T17:17:46.667Z,19.8
2022-08-07T17:20:02.935Z,19.8
2022-08-07T17:21:50.751Z,19.9
2022-08-07T17:23:40.305Z,19.8
2022-08-07T17:25:51.106Z,19.9
2022-08-07T17:27:51.050Z,20.1
2022-08-07T17:30:14.411Z,20.3
2022-08-07T17:31:44.304Z,20.4
2022-08-07T17:34:15.135Z,20.1
2022-08-07T17:35:54.962Z,20.0
2022-08-07T17:38:09.365Z,20.2
2022-08-07T17:39:57.727Z,20.3
2022-08-07T17:42:03.778Z,20.4
2022-08-07T17:44:14.708Z,20.7
2022-08-07T17:46:10.372Z,20.7
2022-08-07T17:48:12.834Z,21.3
2022-08-07T17:50:16.460Z,21.2
2022-08-07T17:52:12.739Z,21.1
2022-08-07T17:54:11.475Z,21.2
2022-08-07T17:56:15.368Z,20.8
2022-08-07T17:58:10.406Z,20.5
2022-08-07T18:00:11.295Z,20.6
2022-08-07T18:02:10.906Z,20.6
2022-08-07T18:04:16.519Z,20.5
2022-08-07T18:06:16.666Z,20.3
2022-08-07T18:08:16.377Z,20.3
2022-08-07T18:10:28.584Z,20.4
2022-08-07T18:12:19.948Z,20.4
2022-08-07T18:14:10.374Z,20.3
2022-08-07T18:16:10.399Z,20.5
2022-08-07T18:19:02.737Z,20.5
2022-08-07T18:21:11.699Z,20.5
2022-08-07T18:22:16.931Z,20.9
2022-08-07T18:24:10.383Z,21.0
2022-08-07T18:26:15.229Z,20.8
2022-08-07T18:28:15.042Z,20.7
2022-08-07T18:30:32.636Z,20.5
2022-08-07T18:32:10.411Z,20.6
2022-08-07T18:34:40.746Z,20.7
2022-08-07T18:36:10.440Z,20.6
2022-08-07T18:38:58.483Z,20.4
2022-08-07T18:40:18.239Z,20.3
2022-08-07T18:42:13.070Z,19.9
2022-08-07T18:44:10.459Z,20.0
2022-08-07T18:46:25.392Z,20.2
2022-08-07T18:48:10.477Z,19.8
2022-08-07T18:50:39.739Z,19.9
2022-08-07T18:52:41.062Z,19.9
2022-08-07T18:54:30.818Z,19.7
2022-08-07T18:56:12.515Z,19.4
2022-08-07T18:58:15.056Z,19.1
2022-08-07T19:00:32.545Z,19.1
2022-08-07T19:02:32.519Z,19.0
2022-08-07T19:04:13.743Z,19.2
2022-08-07T19:06:10.468Z,19.2
2022-08-07T19:08:10.393Z,19.3
2022-08-07T19:10:18.193Z,19.2
2022-08-07T19:12:10.406Z,19.4
2022-08-07T19:14:11.497Z,19.5
2022-08-07T19:17:00.625Z,19.3
2022-08-07T19:18:11.532Z,19.5
2022-08-07T19:20:29.390Z,19.6
2022-08-07T19:22:11.154Z,19.2
2022-08-07T19:24:10.418Z,19.4
2022-08-07T19:26:23.395Z,19.7
2022-08-07T19:28:57.906Z,19.6
2022-08-07T19:31:05.331Z,19.4
2022-08-07T19:32:17.107Z,19.3
2022-08-07T19:34:10.511Z,19.4
2022-08-07T19:36:10.487Z,19.5
2022-08-07T19:38:16.038Z,19.5
2022-08-07T19:40:10.541Z,19.5
2022-08-07T19:42:22.325Z,19.7
2022-08-07T19:44:21.794Z,19.5
2022-08-07T19:46:10.790Z,19.4
2022-08-07T19:48:18.359Z,19.2
2022-08-07T19:50:45.089Z,19.0
2022-08-07T19:52:42.027Z,19.2
2022-08-07T19:54:55.930Z,19.4
2022-08-07T19:57:52.083Z,19.5
2022-08-07T19:58:44.865Z,19.7
2022-08-07T20:00:40.453Z,20.2
2022-08-07T20:02:40.419Z,20.0
2022-08-07T20:04:40.552Z,19.9
2022-08-07T20:06:43.012Z,19.8
2022-08-07T20:08:45.145Z,19.8
2022-08-07T20:10:54.403Z,19.9
2022-08-07T20:12:42.802Z,19.9
2022-08-07T20:14:54.155Z,20.2
2022-08-07T20:16:40.443Z,20.3
2022-08-07T20:18:40.687Z,20.3
2022-08-07T20:20:40.502Z,20.0
2022-08-07T20:22:40.817Z,20.1
2022-08-07T20:24:40.619Z,20.1
2022-08-07T20:26:46.057Z,19.7
2022-08-07T20:28:40.429Z,19.9
2022-08-07T20:30:40.539Z,20.1
2022-08-07T20:32:40.934Z,20.3
2022-08-07T20:34:50.801Z,20.4
2022-08-07T20:36:40.599Z,20.4
2022-08-07T20:38:59.358Z,20.3
2022-08-07T20:40:41.334Z,20.3
2022-08-07T20:42:40.553Z,20.0
2022-08-07T20:44:40.558Z,20.2
2022-08-07T20:46:44.333Z,20.5
2022-08-07T20:48:57.885Z,20.5
2022-08-07T20:50:40.686Z,20.5
2022-08-07T20:52:51.118Z,20.3
2022-08-07T20:54:45.547Z,20.3
2022-08-07T20:58:40.523Z,20.5
2022-08-07T21:04:48.723Z,20.6
2022-08-07T21:06:53.645Z,20.6
2022-08-07T21:08:48.717Z,20.6
2022-08-07T21:10:48.759Z,20.5
2022-08-07T21:12:48.724Z,20.5
2022-08-07T21:14:53.575Z,20.2
2022-08-07T21:16:56.753Z,20.3
2022-08-07T21:18:50.506Z,20.3
2022-08-07T21:20:56.372Z,20.8
2022-08-07T21:22:51.236Z,20.6
2022-08-07T21:24:49.035Z,20.5
2022-08-07T21:26:48.797Z,20.6
2022-08-07T21:28:50.929Z,20.5
2022-08-07T21:30:48.715Z,20.4
2022-08-07T21:32:52.270Z,20.4
2022-08-07T21:34:48.994Z,20.2
2022-08-07T21:36:50.420Z,20.1
2022-08-07T21:38:49.863Z,20.1
2022-08-07T21:40:49.482Z,20.3
2022-08-07T21:42:48.947Z,20.4
2022-08-07T21:44:51.022Z,20.4
2022-08-07T21:46:48.759Z,20.1
2022-08-07T21:48:56.595Z,20.0
2022-08-07T21:50:48.724Z,19.9
2022-08-07T21:52:48.748Z,20.1
2022-08-07T21:54:48.775Z,19.8
2022-08-07T21:56:49.290Z,19.9
2022-08-07T21:58:48.725Z,19.6
2022-08-07T22:00:48.726Z,19.7
2022-08-07T22:02:48.775Z,20.0
2022-08-07T22:04:53.638Z,19.6
2022-08-07T22:06:49.697Z,19.8
2022-08-07T22:08:48.743Z,19.8
2022-08-07T22:10:48.732Z,20.1
2022-08-07T22:12:49.591Z,19.8
2022-08-07T22:14:59.864Z,20.0
2022-08-07T22:16:48.742Z,19.9
2022-08-07T22:18:48.754Z,20.0
2022-08-07T22:20:48.741Z,19.8
2022-08-07T22:22:49.301Z,19.7
2022-08-07T22:25:18.745Z,19.5
2022-08-07T22:27:18.765Z,19.7
2022-08-07T22:29:18.745Z,19.9
2022-08-07T22:31:59.461Z,20.0
2022-08-07T22:33:18.763Z,19.9
2022-08-07T22:35:18.865Z,20.2
2022-08-07T22:37:18.750Z,20.3
2022-08-07T22:39:18.861Z,20.4
2022-08-07T22:41:20.089Z,20.6
2022-08-07T22:43:18.771Z,20.5
2022-08-07T22:46:04.547Z,20.8
2022-08-07T22:47:18.761Z,20.7
2022-08-07T22:49:18.779Z,20.8
2022-08-07T22:51:18.862Z,20.8
2022-08-07T22:53:18.780Z,20.8
2022-08-07T22:55:23.005Z,20.8
2022-08-07T22:57:18.795Z,21.2
2022-08-07T22:59:18.771Z,21.4
2022-08-07T23:01:18.769Z,21.2
2022-08-07T23:03:18.879Z,21.3
2022-08-07T23:06:14.979Z,21.3
2022-08-07T23:07:40.100Z,21.2
2022-08-07T23:10:05.526Z,21.4
2022-08-07T23:11:18.790Z,21.5
2022-08-07T23:13:18.782Z,21.7
2022-08-07T23:15:21.968Z,22.0
2022-08-07T23:17:20.325Z,21.9
2022-08-07T23:19:19.484Z,21.8
2022-08-07T23:21:18.782Z,21.8
2022-08-07T23:24:05.425Z,21.8
2022-08-07T23:25:18.785Z,22.0
2022-08-07T23:27:18.795Z,22.1
2022-08-07T23:29:43.735Z,22.3
2022-08-07T23:32:48.851Z,22.3
2022-08-07T23:34:23.499Z,22.4
2022-08-07T23:35:18.824Z,22.4
2022-08-07T23:37:22.636Z,22.4
2022-08-07T23:39:22.162Z,22.4
2022-08-07T23:41:18.817Z,22.1
2022-08-07T23:43:18.814Z,21.9
2022-08-07T23:45:33.438Z,21.8
2022-08-07T23:47:18.870Z,21.8
2022-08-07T23:49:18.818Z,22.0
2022-08-07T23:52:55.963Z,22.0
2022-08-07T23:53:19.393Z,21.9
2022-08-07T23:55:52.052Z,22.0
2022-08-07T23:57:18.842Z,21.8
